Terminal Aerodrome Forecast
Issued by NWS

Home | Current Version | Previous Version | Text Only | Print | Product List | Glossary On
Versions: 1 2 3 4 5 6 7 8 9 10 11 12 13 14 15 16
000
FTUS42 KTAE 251721
TAFABY
TAF
KABY 251721Z 2518/2618 20009KT P6SM BKN035
      TEMPO 2519/2522 6SM SHRA
     FM260700 19004KT 4SM BR OVC004
     FM261500 20007KT P6SM BKN025=

USA.gov is the U.S. government's official web portal to all federal, state and local government web resources and services.